+07,Max TemperatureF,Mean TemperatureF,Min TemperatureF,Max Dew PointF,MeanDew PointF,Min DewpointF,Max Humidity, Mean Humidity, Min Humidity, Max Sea Level PressureIn, Mean Sea Level PressureIn, Min Sea Level PressureIn, Max VisibilityMiles, Mean VisibilityMiles, Min VisibilityMiles, Max Wind SpeedMPH, Mean Wind SpeedMPH, Max Gust SpeedMPH,PrecipitationIn, CloudCover, Events, WindDirDegrees
2012-12-1,91,83,75,77,74,72,89,79,52,29.89,29.83,29.77,4,4,3,7,2,,0.00,6,,14
2012-12-2,91,83,75,77,74,70,94,80,52,29.89,29.84,29.80,3,3,2,7,1,,0.00,6,,307
2012-12-3,91,82,73,75,72,68,94,74,46,29.89,29.85,29.80,4,2,1,7,2,,0.00,6,,170
2012-12-4,89,81,73,73,72,70,94,76,52,29.92,29.84,29.77,6,4,1,9,1,,0.00,6,,191
2012-12-5,91,82,73,75,72,70,89,74,55,29.92,29.86,29.80,6,5,3,9,1,,0.00,6,,226
2012-12-6,89,81,73,73,71,68,89,73,49,29.92,29.86,29.80,6,5,3,7,1,,0.00,6,,229
2012-12-7,89,82,75,73,72,70,89,75,52,29.95,29.86,29.80,6,5,4,6,2,,0.00,5,,257
2012-12-8,89,81,73,75,72,70,89,75,55,29.92,29.85,29.80,6,4,4,7,2,,0.00,5,,248
2012-12-9,89,81,73,73,72,70,89,75,55,29.89,29.84,29.80,6,4,4,7,1,,0.00,6,,219
2012-12-10,87,80,73,75,73,70,94,76,58,29.89,29.84,29.80,4,4,3,7,1,,0.00,6,Thunderstorm,286
2012-12-11,91,83,75,75,73,70,94,76,49,29.89,29.83,29.77,4,4,2,7,2,,0.00,6,Thunderstorm,7
2012-12-12,91,82,73,73,70,64,89,74,43,29.89,29.85,29.80,5,4,2,9,3,,0.00,6,,40
2012-12-13,91,80,69,72,67,61,94,68,36,29.92,29.86,29.80,5,4,3,9,3,,0.00,4,,54
2012-12-14,93,83,73,73,69,63,88,66,38,29.95,29.89,29.83,5,4,3,9,2,,0.00,5,,306
2012-12-15,93,84,75,75,71,66,84,67,41,29.89,29.85,29.77,5,4,2,9,4,,0.00,5,,292
2012-12-16,93,84,75,75,73,66,89,71,41,29.89,29.85,29.80,5,2,0,9,2,,0.00,5,Fog,17
2012-12-17,93,84,75,75,72,66,89,69,41,29.86,29.82,29.74,5,3,1,9,3,,0.00,6,,346
2012-12-18,93,84,75,75,73,70,89,71,46,29.92,29.84,29.80,3,2,1,9,3,,0.00,5,,351
2012-12-19,93,84,75,75,71,64,94,69,38,29.86,29.82,29.74,6,4,1,8,2,,0.00,5,,124
2012-12-20,91,82,73,73,70,64,89,71,41,29.86,29.81,29.77,6,5,4,9,2,,0.00,6,,184
2012-12-21,93,83,73,73,70,64,89,68,38,29.86,29.81,29.74,5,4,2,9,2,,0.00,6,,328
2012-12-22,93,84,75,73,71,64,89,69,38,29.86,29.80,29.74,5,4,2,9,3,,0.00,6,,26
2012-12-23,91,83,75,73,68,63,89,62,38,29.89,29.84,29.77,4,4,2,9,4,,0.00,6,,47
2012-12-24,89,79,69,68,61,55,78,56,33,29.95,29.88,29.80,6,4,3,9,5,,0.00,3,,49
2012-12-25,89,79,69,68,61,55,73,56,33,29.89,29.84,29.77,5,4,3,7,5,,0.00,3,,24
2012-12-26,91,80,69,66,62,57,73,57,31,29.86,29.81,29.74,3,3,2,9,2,,0.00,4,,13
2012-12-27,93,82,71,72,66,59,89,60,34,29.86,29.79,29.71,4,2,1,9,3,,0.00,3,,6
2012-12-28,93,83,73,73,68,63,88,64,36,29.83,29.76,29.71,4,2,1,9,2,,0.00,3,,12
2012-12-29,95,85,75,73,69,61,83,62,32,29.83,29.77,29.71,5,4,2,9,4,,0.00,3,,20
2012-12-30,95,86,77,73,68,59,83,59,32,29.83,29.77,29.74,5,4,2,12,3,,0.00,4,,354
2012-12-31,89,82,75,73,64,57,83,60,33,29.86,29.81,29.74,4,3,2,9,2,,0.00,5,,52